createdAt,value
2019-02-05T00:00:35.914Z,16.60
2019-02-05T00:03:02.775Z,11.57
2019-02-05T00:05:29.597Z,12.88
2019-02-05T00:07:56.458Z,12.30
2019-02-05T00:10:23.286Z,14.83
2019-02-05T00:12:50.142Z,12.30
2019-02-05T00:15:16.966Z,12.95
2019-02-05T00:17:43.814Z,15.23
2019-02-05T00:20:10.646Z,14.23
2019-02-05T00:22:37.490Z,13.55
2019-02-05T00:25:04.414Z,13.03
2019-02-05T00:27:31.262Z,12.53
2019-02-05T00:29:58.098Z,11.60
2019-02-05T00:32:25.201Z,13.00
2019-02-05T00:34:52.014Z,13.30
2019-02-05T00:37:18.861Z,12.47
2019-02-05T00:39:45.705Z,13.30
2019-02-05T00:42:12.554Z,13.88
2019-02-05T00:44:39.377Z,12.77
2019-02-05T00:47:06.243Z,15.13
2019-02-05T00:49:33.086Z,12.78
2019-02-05T00:51:59.970Z,14.30
2019-02-05T00:54:26.798Z,11.60
2019-02-05T00:56:53.654Z,11.50
2019-02-05T00:59:20.482Z,12.20
2019-02-05T01:01:47.352Z,13.77
2019-02-05T01:04:14.182Z,12.43
2019-02-05T01:06:41.014Z,13.43
2019-02-05T01:09:08.310Z,12.83
2019-02-05T01:11:35.149Z,11.13
2019-02-05T01:14:02.009Z,13.33
2019-02-05T01:16:28.846Z,12.07
2019-02-05T01:18:55.699Z,13.17
2019-02-05T01:21:22.531Z,13.83
2019-02-05T01:23:49.369Z,14.13
2019-02-05T01:26:16.193Z,15.03
2019-02-05T01:28:43.033Z,15.38
2019-02-05T01:31:09.862Z,15.43
2019-02-05T01:33:36.706Z,16.15
2019-02-05T01:36:03.540Z,15.40
2019-02-05T01:38:30.383Z,15.13
2019-02-05T01:40:57.218Z,13.27
2019-02-05T01:43:24.065Z,17.07
2019-02-05T01:45:50.893Z,14.73
2019-02-05T01:48:17.749Z,14.90
2019-02-05T01:50:44.590Z,17.10
2019-02-05T01:53:11.437Z,14.47
2019-02-05T01:55:38.266Z,14.37
2019-02-05T01:58:05.114Z,16.82
2019-02-05T02:00:34.051Z,14.90
2019-02-05T02:03:00.898Z,12.73
2019-02-05T02:05:27.767Z,15.47
2019-02-05T02:07:54.616Z,15.93
2019-02-05T02:10:23.189Z,23.70
2019-02-05T02:12:50.050Z,17.07
2019-02-05T02:15:17.010Z,15.93
2019-02-05T02:17:43.906Z,18.77
2019-02-05T02:20:12.714Z,19.25
2019-02-05T02:22:39.649Z,19.20
2019-02-05T02:25:07.206Z,20.00
2019-02-05T02:27:34.037Z,20.10
2019-02-05T02:30:00.902Z,19.45
2019-02-05T02:32:27.717Z,16.67
2019-02-05T02:34:54.566Z,18.73
2019-02-05T02:37:21.401Z,20.30
2019-02-05T02:39:48.242Z,19.90
2019-02-05T02:42:15.065Z,19.48
2019-02-05T02:44:41.914Z,25.53
2019-02-05T02:47:08.750Z,23.90
2019-02-05T02:49:35.717Z,22.57
2019-02-05T02:52:02.559Z,18.55
2019-02-05T02:54:29.414Z,20.15
2019-02-05T02:57:04.609Z,18.70
2019-02-05T02:59:23.099Z,20.57
2019-02-05T03:01:49.932Z,19.27
2019-02-05T03:04:16.775Z,21.20
2019-02-05T03:06:43.609Z,21.75
2019-02-05T03:09:10.435Z,20.45
2019-02-05T03:11:37.306Z,21.37
2019-02-05T03:14:04.459Z,21.27
2019-02-05T03:16:31.348Z,20.87
2019-02-05T03:18:58.187Z,19.85
2019-02-05T03:21:25.087Z,19.77
2019-02-05T03:23:51.929Z,18.77
2019-02-05T03:26:18.760Z,22.10
2019-02-05T03:28:45.608Z,22.65
2019-02-05T03:31:12.469Z,22.62
2019-02-05T03:33:39.300Z,22.90
2019-02-05T03:36:06.126Z,21.27
2019-02-05T03:38:32.971Z,23.57
2019-02-05T03:41:02.226Z,22.40
2019-02-05T03:43:29.199Z,21.30
2019-02-05T03:45:56.022Z,19.83
2019-02-05T03:48:22.861Z,23.22
2019-02-05T03:50:49.742Z,17.63
2019-02-05T03:53:17.306Z,22.55
2019-02-05T03:56:08.639Z,23.67
2019-02-05T03:58:54.595Z,23.63
2019-02-05T04:01:47.574Z,24.72
2019-02-05T04:04:35.933Z,25.40
2019-02-05T04:07:16.592Z,29.12
2019-02-05T04:10:05.073Z,29.95
2019-02-05T04:12:57.144Z,33.23
2019-02-05T04:15:39.982Z,31.60
2019-02-05T04:18:18.529Z,26.48
2019-02-05T04:21:18.995Z,27.73
2019-02-05T04:24:15.216Z,27.55
2019-02-05T04:27:07.411Z,30.82
2019-02-05T04:30:02.790Z,26.87
2019-02-05T04:32:43.534Z,30.12
2019-02-05T04:35:25.925Z,29.77
2019-02-05T04:38:27.901Z,30.83
2019-02-05T04:41:04.515Z,34.75
2019-02-05T04:44:01.618Z,36.15
2019-02-05T04:46:58.278Z,35.17
2019-02-05T04:49:53.518Z,36.03
2019-02-05T04:52:45.758Z,36.42
2019-02-05T04:55:40.559Z,33.47
2019-02-05T04:58:30.618Z,40.45
2019-02-05T05:01:43.643Z,35.03
2019-02-05T05:04:26.350Z,32.63
2019-02-05T05:07:28.721Z,37.23
2019-02-05T05:09:57.566Z,36.63
2019-02-05T05:12:25.522Z,37.60
2019-02-05T05:14:52.388Z,36.53
2019-02-05T05:17:19.202Z,36.63
2019-02-05T05:19:46.166Z,34.47
2019-02-05T05:22:12.996Z,37.50
2019-02-05T05:24:39.997Z,41.70
2019-02-05T05:27:06.690Z,43.15
2019-02-05T05:29:33.570Z,40.57
2019-02-05T05:32:00.434Z,44.40
2019-02-05T05:34:27.283Z,39.05
2019-02-05T05:36:53.298Z,40.30
2019-02-05T05:39:20.171Z,42.05
2019-02-05T05:41:47.002Z,39.75
2019-02-05T05:44:13.843Z,43.70
2019-02-05T05:46:40.669Z,45.60
2019-02-05T05:49:07.522Z,40.28
2019-02-05T05:51:34.349Z,36.07
2019-02-05T05:54:01.190Z,41.55
2019-02-05T05:56:28.654Z,42.30
2019-02-05T05:58:55.497Z,41.30
2019-02-05T06:01:22.314Z,45.00
2019-02-05T06:03:49.178Z,43.38
2019-02-05T06:06:16.002Z,42.47
2019-02-05T06:08:42.826Z,44.70
2019-02-05T06:11:09.718Z,43.58
2019-02-05T06:13:36.546Z,42.23
2019-02-05T06:16:03.410Z,41.88
2019-02-05T06:18:30.247Z,44.40
2019-02-05T06:20:57.096Z,46.13
2019-02-05T06:23:23.928Z,43.90
2019-02-05T06:25:50.768Z,44.25
2019-02-05T06:28:17.597Z,44.90
2019-02-05T06:30:44.436Z,49.27
2019-02-05T06:33:11.253Z,46.90
2019-02-05T06:35:38.094Z,44.23
2019-02-05T06:38:04.929Z,47.62
2019-02-05T06:40:31.832Z,49.00
2019-02-05T06:42:58.649Z,44.35
2019-02-05T06:45:25.502Z,44.50
2019-02-05T06:47:52.335Z,52.00
2019-02-05T06:50:19.187Z,54.40
2019-02-05T06:52:46.013Z,46.57
2019-02-05T06:55:12.897Z,50.15
2019-02-05T06:57:39.728Z,53.87
2019-02-05T07:00:10.271Z,47.77
2019-02-05T07:02:37.107Z,55.75
2019-02-05T07:05:05.310Z,51.15
2019-02-05T07:07:32.130Z,49.42
2019-02-05T07:09:58.974Z,43.70
2019-02-05T07:12:25.882Z,48.83
2019-02-05T07:14:52.717Z,51.15
2019-02-05T07:17:19.537Z,40.57
2019-02-05T07:19:46.376Z,49.60
2019-02-05T07:22:13.217Z,49.30
2019-02-05T07:24:40.092Z,48.50
2019-02-05T07:27:06.918Z,51.55
2019-02-05T07:29:33.763Z,47.50
2019-02-05T07:32:00.577Z,44.93
2019-02-05T07:34:27.427Z,48.20
2019-02-05T07:36:54.246Z,47.05
2019-02-05T07:39:21.071Z,48.70
2019-02-05T07:41:47.991Z,46.70
2019-02-05T07:44:14.742Z,52.50
2019-02-05T07:46:41.577Z,45.50
2019-02-05T07:49:08.406Z,48.38
2019-02-05T07:51:35.275Z,54.42
2019-02-05T07:54:02.130Z,58.47
2019-02-05T07:56:28.970Z,55.78
2019-02-05T07:58:55.858Z,55.65
2019-02-05T08:01:22.687Z,55.48
2019-02-05T08:03:49.537Z,53.40
2019-02-05T08:06:16.383Z,52.50
2019-02-05T08:08:43.218Z,52.10
2019-02-05T08:11:10.074Z,44.27
2019-02-05T08:13:36.902Z,47.85
2019-02-05T08:16:03.778Z,47.73
2019-02-05T08:18:30.742Z,47.53
2019-02-05T08:20:57.593Z,50.28
2019-02-05T08:23:24.420Z,45.60
2019-02-05T08:25:51.315Z,43.80
2019-02-05T08:28:18.185Z,46.15
2019-02-05T08:30:46.525Z,45.55
2019-02-05T08:33:13.430Z,44.83
2019-02-05T08:35:40.196Z,41.00
2019-02-05T08:38:07.103Z,46.33
2019-02-05T08:40:34.097Z,40.40
2019-02-05T08:43:00.926Z,42.73
2019-02-05T08:45:28.471Z,42.98
2019-02-05T08:47:55.338Z,42.45
2019-02-05T08:50:23.732Z,42.60
2019-02-05T08:52:50.571Z,44.95
2019-02-05T08:55:18.231Z,42.03
2019-02-05T08:57:45.113Z,49.30
2019-02-05T09:00:16.538Z,40.80
2019-02-05T09:02:43.413Z,43.40
2019-02-05T09:05:10.250Z,45.30
2019-02-05T09:07:37.097Z,43.20
2019-02-05T09:10:05.306Z,41.83
2019-02-05T09:12:32.146Z,42.67
2019-02-05T09:14:58.983Z,39.63
2019-02-05T09:17:25.834Z,42.35
2019-02-05T09:19:52.654Z,37.85
2019-02-05T09:22:19.599Z,40.65
2019-02-05T09:24:46.432Z,36.60
2019-02-05T09:27:13.326Z,35.73
2019-02-05T09:29:40.118Z,33.60
2019-02-05T09:32:06.966Z,36.27
2019-02-05T09:34:33.798Z,33.33
2019-02-05T09:37:00.674Z,31.10
2019-02-05T09:39:27.516Z,33.80
2019-02-05T09:41:54.366Z,25.00
2019-02-05T09:44:21.204Z,30.73
2019-02-05T09:46:48.069Z,26.20
2019-02-05T09:49:14.905Z,31.07
2019-02-05T09:51:41.791Z,30.43
2019-02-05T09:54:08.598Z,27.03
2019-02-05T09:56:35.454Z,27.60
2019-02-05T09:59:02.279Z,26.40
2019-02-05T10:01:29.118Z,26.27
2019-02-05T10:03:55.961Z,28.65
2019-02-05T10:06:22.802Z,25.63
2019-02-05T10:08:49.643Z,26.80
2019-02-05T10:11:16.497Z,24.30
2019-02-05T10:13:43.370Z,25.53
2019-02-05T10:16:10.202Z,29.80
2019-02-05T10:18:37.058Z,26.97
2019-02-05T10:21:04.395Z,27.23
2019-02-05T10:23:31.238Z,26.63
2019-02-05T10:25:58.070Z,27.47
2019-02-05T10:28:24.922Z,25.80
2019-02-05T10:30:51.760Z,24.67
2019-02-05T10:33:18.618Z,27.10
2019-02-05T10:35:45.461Z,25.33
2019-02-05T10:38:12.313Z,26.17
2019-02-05T10:40:39.149Z,27.53
2019-02-05T10:43:06.452Z,24.53
2019-02-05T10:45:33.287Z,22.43
2019-02-05T10:48:00.135Z,23.03
2019-02-05T10:50:26.961Z,26.23
2019-02-05T10:52:53.801Z,25.57
2019-02-05T10:55:20.655Z,25.35
2019-02-05T10:57:47.548Z,25.72
2019-02-05T11:00:19.414Z,26.17
2019-02-05T11:02:46.501Z,23.07
2019-02-05T11:05:15.554Z,21.80
2019-02-05T11:07:42.406Z,25.10
2019-02-05T11:10:09.443Z,20.00
2019-02-05T11:12:36.302Z,17.77
2019-02-05T11:15:04.195Z,19.57
2019-02-05T11:17:31.036Z,21.02
2019-02-05T11:19:57.879Z,20.48
2019-02-05T11:22:24.727Z,20.45
2019-02-05T11:24:51.554Z,19.48
2019-02-05T11:27:18.401Z,16.90
2019-02-05T11:29:45.318Z,21.00
2019-02-05T11:32:12.202Z,24.20
2019-02-05T11:34:39.038Z,21.20
2019-02-05T11:37:05.902Z,19.97
2019-02-05T11:39:32.734Z,17.93
2019-02-05T11:41:59.591Z,19.80
2019-02-05T11:44:26.422Z,20.47
2019-02-05T11:46:53.245Z,17.77
2019-02-05T11:49:20.106Z,20.27
2019-02-05T11:51:46.933Z,18.57
2019-02-05T11:54:13.778Z,18.13
2019-02-05T11:56:40.666Z,15.87
2019-02-05T11:59:07.522Z,16.30
2019-02-05T12:01:38.879Z,15.87
2019-02-05T12:04:02.229Z,15.27
2019-02-05T12:06:29.074Z,15.17
2019-02-05T12:08:55.961Z,16.10
2019-02-05T12:11:22.802Z,18.33
2019-02-05T12:13:49.651Z,19.17
2019-02-05T12:16:16.496Z,15.90
2019-02-05T12:18:43.383Z,15.70
2019-02-05T12:21:10.211Z,16.10
2019-02-05T12:23:37.064Z,15.33
2019-02-05T12:26:03.891Z,18.60
2019-02-05T12:28:30.809Z,16.80
2019-02-05T12:30:57.570Z,16.73
2019-02-05T12:33:24.426Z,15.90
2019-02-05T12:35:51.591Z,16.70
2019-02-05T12:38:18.574Z,13.67
2019-02-05T12:40:45.424Z,13.63
2019-02-05T12:43:12.265Z,11.90
2019-02-05T12:45:40.532Z,11.27
2019-02-05T12:48:09.627Z,13.80
2019-02-05T12:50:36.771Z,13.17
2019-02-05T12:53:04.410Z,14.40
2019-02-05T12:55:31.381Z,12.90
2019-02-05T12:57:58.412Z,15.27
2019-02-05T13:00:34.818Z,11.80
2019-02-05T13:03:01.672Z,8.90
2019-02-05T13:05:28.498Z,10.80
2019-02-05T13:07:55.350Z,10.20
2019-02-05T13:10:24.902Z,11.03
2019-02-05T13:12:51.742Z,12.70
2019-02-05T13:15:18.618Z,9.57
2019-02-05T13:17:45.453Z,9.10
2019-02-05T13:20:17.346Z,9.70
2019-02-05T13:22:44.314Z,12.30
2019-02-05T13:25:14.464Z,8.10
2019-02-05T13:27:41.287Z,9.40
2019-02-05T13:30:09.230Z,8.53
2019-02-05T13:32:36.062Z,9.73
2019-02-05T13:35:03.253Z,9.40
2019-02-05T13:37:30.086Z,10.87
2019-02-05T13:39:56.930Z,8.83
2019-02-05T13:42:23.753Z,7.50
2019-02-05T13:44:50.606Z,8.20
2019-02-05T13:47:17.466Z,8.23
2019-02-05T13:49:44.351Z,8.17
2019-02-05T13:52:11.150Z,11.27
2019-02-05T13:54:38.003Z,11.00
2019-02-05T13:57:04.861Z,10.33
2019-02-05T13:59:31.714Z,9.33
2019-02-05T14:01:58.550Z,10.93
2019-02-05T14:04:25.432Z,10.10
2019-02-05T14:06:52.302Z,14.73
2019-02-05T14:09:19.146Z,19.00
2019-02-05T14:11:45.971Z,18.57
2019-02-05T14:14:12.818Z,15.37
2019-02-05T14:16:39.669Z,14.63
2019-02-05T14:19:06.522Z,17.30
2019-02-05T14:21:33.370Z,13.70
2019-02-05T14:24:00.322Z,17.57
2019-02-05T14:26:27.046Z,15.13
2019-02-05T14:28:53.910Z,16.20
2019-02-05T14:31:31.028Z,17.00
2019-02-05T14:33:47.694Z,15.33
2019-02-05T14:36:14.539Z,12.87
2019-02-05T14:38:41.383Z,13.50
2019-02-05T14:41:08.213Z,13.83
2019-02-05T14:43:35.063Z,12.43
2019-02-05T14:46:02.000Z,12.20
2019-02-05T14:48:28.953Z,16.70
2019-02-05T14:50:55.898Z,13.03
2019-02-05T14:53:22.833Z,14.37
2019-02-05T14:55:49.815Z,15.73
2019-02-05T14:58:17.079Z,15.73
2019-02-05T15:00:43.933Z,14.10
2019-02-05T15:03:11.706Z,14.60
2019-02-05T15:05:39.258Z,11.27
2019-02-05T15:08:06.301Z,12.10
2019-02-05T15:10:33.159Z,13.47
2019-02-05T15:12:59.981Z,14.00
2019-02-05T15:15:26.874Z,12.93
2019-02-05T15:17:53.713Z,13.90
2019-02-05T15:20:23.275Z,16.17
2019-02-05T15:22:50.105Z,15.23
2019-02-05T15:25:16.954Z,14.03
2019-02-05T15:27:43.894Z,11.40
2019-02-05T15:30:14.058Z,12.77
2019-02-05T15:33:02.278Z,12.00
2019-02-05T15:35:29.154Z,12.37
2019-02-05T15:37:56.086Z,11.57
2019-02-05T15:40:22.925Z,9.70
2019-02-05T15:42:49.758Z,11.60
2019-02-05T15:45:16.650Z,11.67
2019-02-05T15:47:43.481Z,10.77
2019-02-05T15:50:10.354Z,9.90
2019-02-05T15:52:37.182Z,8.83
2019-02-05T15:55:04.701Z,11.10
2019-02-05T15:57:31.531Z,14.10
2019-02-05T15:59:58.393Z,8.83
2019-02-05T16:02:25.322Z,9.70
2019-02-05T16:04:52.182Z,10.60
2019-02-05T16:07:19.046Z,10.20
2019-02-05T16:09:45.894Z,11.73
2019-02-05T16:12:12.726Z,9.50
2019-02-05T16:14:39.602Z,10.63
2019-02-05T16:17:06.434Z,8.90
2019-02-05T16:19:33.287Z,9.40
2019-02-05T16:22:00.163Z,11.43
2019-02-05T16:24:26.986Z,12.23
2019-02-05T16:26:53.859Z,12.93
2019-02-05T16:29:20.682Z,11.40
2019-02-05T16:31:47.554Z,9.03
2019-02-05T16:34:14.390Z,9.70
2019-02-05T16:36:41.357Z,10.07
2019-02-05T16:39:09.149Z,9.47
2019-02-05T16:41:36.005Z,10.90
2019-02-05T16:44:02.834Z,9.73
2019-02-05T16:46:29.740Z,10.00
2019-02-05T16:48:56.569Z,11.73
2019-02-05T16:51:23.525Z,11.20
2019-02-05T16:53:50.450Z,11.53
2019-02-05T16:56:17.968Z,13.87
2019-02-05T16:58:44.350Z,13.60
2019-02-05T17:01:11.306Z,9.90
2019-02-05T17:03:38.163Z,19.70
2019-02-05T17:06:05.118Z,11.93
2019-02-05T17:08:31.942Z,12.83
2019-02-05T17:10:58.808Z,11.10
2019-02-05T17:13:25.706Z,10.70
2019-02-05T17:15:52.570Z,11.70
2019-02-05T17:18:23.850Z,13.60
2019-02-05T17:20:46.272Z,15.00
2019-02-05T17:23:13.105Z,14.10
2019-02-05T17:25:40.042Z,15.33
2019-02-05T17:28:06.889Z,13.43
2019-02-05T17:30:35.521Z,11.97
2019-02-05T17:33:02.414Z,11.27
2019-02-05T17:35:29.270Z,11.70
2019-02-05T17:37:56.242Z,16.20
2019-02-05T17:40:23.461Z,10.63
2019-02-05T17:42:50.553Z,12.27
2019-02-05T17:45:19.502Z,14.20
2019-02-05T17:47:46.358Z,11.50
2019-02-05T17:50:13.201Z,12.10
2019-02-05T17:52:40.058Z,11.03
2019-02-05T17:55:07.899Z,27.95
2019-02-05T17:57:34.771Z,29.00
2019-02-05T18:00:01.634Z,112.80
2019-02-05T18:02:28.485Z,200.13
2019-02-05T18:04:55.338Z,63.53
2019-02-05T18:07:22.237Z,51.67
2019-02-05T18:09:49.089Z,24.50
2019-02-05T18:12:15.970Z,15.77
2019-02-05T18:14:42.816Z,18.87
2019-02-05T18:17:09.677Z,12.97
2019-02-05T18:19:36.522Z,12.60
2019-02-05T18:22:03.399Z,11.50
2019-02-05T18:24:30.253Z,15.03
2019-02-05T18:26:57.111Z,16.20
2019-02-05T18:29:23.950Z,13.70
2019-02-05T18:31:50.812Z,13.17
2019-02-05T18:34:17.648Z,16.97
2019-02-05T18:36:44.530Z,18.20
2019-02-05T18:39:11.362Z,14.10
2019-02-05T18:41:38.321Z,15.20
2019-02-05T18:44:05.246Z,13.00
2019-02-05T18:46:32.180Z,16.00
2019-02-05T18:49:05.078Z,13.77
2019-02-05T18:51:25.879Z,15.33
2019-02-05T18:53:52.818Z,15.20
2019-02-05T18:56:19.661Z,13.63
2019-02-05T18:58:46.947Z,14.50
2019-02-05T19:01:14.188Z,20.17
2019-02-05T19:03:41.445Z,15.00
2019-02-05T19:06:08.789Z,12.77
2019-02-05T19:08:35.926Z,16.30
2019-02-05T19:11:02.801Z,16.50
2019-02-05T19:13:29.915Z,18.13
2019-02-05T19:15:57.145Z,16.37
2019-02-05T19:18:24.298Z,17.77
2019-02-05T19:20:51.391Z,12.83
2019-02-05T19:23:18.485Z,16.37
2019-02-05T19:26:02.561Z,18.33
2019-02-05T19:28:32.255Z,22.07
2019-02-05T19:31:02.347Z,18.47
2019-02-05T19:33:29.102Z,15.00
2019-02-05T19:35:55.940Z,17.63
2019-02-05T19:38:22.794Z,19.13
2019-02-05T19:40:57.114Z,17.30
2019-02-05T19:43:16.491Z,20.33
2019-02-05T19:45:49.807Z,20.53
2019-02-05T19:48:21.648Z,21.17
2019-02-05T19:50:48.488Z,20.70
2019-02-05T19:53:15.426Z,25.43
2019-02-05T19:55:42.275Z,22.73
2019-02-05T19:58:09.142Z,24.85
2019-02-05T20:00:36.022Z,24.60
2019-02-05T20:03:02.911Z,24.37
2019-02-05T20:05:29.746Z,25.37
2019-02-05T20:07:56.650Z,29.20
2019-02-05T20:10:23.486Z,25.50
2019-02-05T20:12:50.406Z,29.37
2019-02-05T20:15:19.654Z,28.40
2019-02-05T20:17:44.059Z,27.87
2019-02-05T20:20:12.294Z,28.05
2019-02-05T20:22:39.142Z,23.57
2019-02-05T20:25:06.902Z,20.53
2019-02-05T20:27:34.459Z,18.87
2019-02-05T20:30:01.316Z,22.73
2019-02-05T20:32:28.332Z,30.47
2019-02-05T20:34:55.011Z,30.90
2019-02-05T20:37:21.867Z,22.85
2019-02-05T20:39:48.821Z,24.57
2019-02-05T20:42:15.566Z,24.33
2019-02-05T20:44:42.410Z,21.77
2019-02-05T20:47:09.241Z,23.37
2019-02-05T20:49:36.098Z,23.22
2019-02-05T20:52:03.282Z,35.97
2019-02-05T20:54:30.133Z,20.70
2019-02-05T20:56:56.987Z,23.77
2019-02-05T20:59:23.854Z,17.30
2019-02-05T21:01:50.896Z,17.10
2019-02-05T21:04:17.690Z,20.95
2019-02-05T21:06:44.533Z,18.60
2019-02-05T21:09:15.059Z,23.87
2019-02-05T21:11:41.911Z,25.33
2019-02-05T21:14:08.750Z,22.32
2019-02-05T21:16:35.583Z,28.30
2019-02-05T21:19:02.427Z,20.43
2019-02-05T21:21:29.282Z,22.62
2019-02-05T21:23:56.131Z,24.13
2019-02-05T21:26:22.966Z,25.20
2019-02-05T21:28:50.375Z,23.60
2019-02-05T21:31:16.634Z,25.13
2019-02-05T21:33:43.455Z,26.07
2019-02-05T21:36:10.294Z,23.35
2019-02-05T21:38:37.134Z,22.40
2019-02-05T21:41:03.974Z,24.15
2019-02-05T21:43:30.809Z,22.37
2019-02-05T21:46:00.949Z,29.77
2019-02-05T21:48:24.528Z,32.85
2019-02-05T21:50:51.386Z,26.83
2019-02-05T21:53:18.210Z,27.62
2019-02-05T21:55:45.091Z,24.70
2019-02-05T21:58:12.545Z,22.43
2019-02-05T22:00:38.764Z,21.73
2019-02-05T22:03:05.931Z,21.83
2019-02-05T22:05:32.822Z,18.87
2019-02-05T22:07:59.611Z,20.47
2019-02-05T22:10:26.485Z,20.30
2019-02-05T22:12:53.305Z,17.57
2019-02-05T22:15:20.174Z,18.65
2019-02-05T22:17:47.000Z,21.50
2019-02-05T22:20:15.710Z,21.27
2019-02-05T22:22:42.546Z,20.57
2019-02-05T22:25:12.606Z,18.27
2019-02-05T22:27:39.450Z,18.10
2019-02-05T22:30:10.687Z,18.35
2019-02-05T22:32:37.509Z,20.93
2019-02-05T22:35:04.379Z,25.68
2019-02-05T22:37:31.203Z,20.47
2019-02-05T22:39:58.051Z,22.98
2019-02-05T22:42:24.874Z,24.60
2019-02-05T22:44:51.722Z,24.80
2019-02-05T22:47:18.555Z,24.50
2019-02-05T22:49:45.469Z,23.53
2019-02-05T22:52:12.306Z,24.57
2019-02-05T22:54:39.126Z,23.00
2019-02-05T22:57:05.979Z,25.70
2019-02-05T22:59:32.874Z,26.80
2019-02-05T23:02:00.346Z,23.70
2019-02-05T23:04:50.184Z,26.62
2019-02-05T23:07:10.214Z,26.15
2019-02-05T23:09:44.214Z,28.30
2019-02-05T23:12:14.550Z,23.40
2019-02-05T23:14:41.385Z,24.77
2019-02-05T23:17:08.238Z,26.30
2019-02-05T23:19:35.082Z,27.62
2019-02-05T23:22:01.925Z,23.60
2019-02-05T23:24:28.757Z,27.10
2019-02-05T23:26:55.594Z,24.80
2019-02-05T23:29:22.417Z,24.00
2019-02-05T23:31:49.262Z,24.63
2019-02-05T23:34:16.082Z,18.60
2019-02-05T23:36:42.918Z,23.85
2019-02-05T23:39:09.834Z,24.10
2019-02-05T23:41:36.678Z,21.50
2019-02-05T23:44:03.498Z,22.48
2019-02-05T23:46:30.350Z,22.30
2019-02-05T23:48:57.198Z,19.98
2019-02-05T23:51:24.050Z,18.77
2019-02-05T23:53:50.866Z,23.67
2019-02-05T23:56:25.439Z,28.27
2019-02-05T23:58:44.542Z,30.90
